Time;durP1;ratioP1;P1;durP2;ratioP2;P2;SDS_P1;SDS_P2;PMS_P1;PMS_P2;Temp;Humidity;BMP_temperature;BMP_pressure;BME280_temperature;BME280_humidity;BME280_pressure;Samples;Min_cycle;Max_cycle;Signal;HPM_P1;HPM_P2
2022/12/22 03:28:12;;;;;;;9.30;2.70;;;;;;;5.47;95.71;99257.09;5023654;28;20136;-51
2022/12/22 03:30:39;;;;;;;11.10;3.55;;;;;;;5.47;95.82;99257.09;5017941;28;20112;-42
2022/12/22 03:33:06;;;;;;;11.75;3.35;;;;;;;5.49;95.99;99260.28;5022045;28;20127;-45
2022/12/22 03:35:33;;;;;;;17.20;2.75;;;;;;;5.48;96.12;99266.13;5018777;28;20049;-43
2022/12/22 03:38:02;;;;;;;9.63;2.30;;;;;;;5.50;96.01;99270.13;5026172;28;20487;-43
2022/12/22 03:40:32;;;;;;;10.20;2.63;;;;;;;5.54;96.24;99273.75;5025164;28;20041;-43
2022/12/22 03:48:28;;;;;;;9.93;2.47;;;;;;;5.64;96.49;99277.16;5026334;28;20038;-42
2022/12/22 03:50:55;;;;;;;10.50;3.15;;;;;;;5.65;96.51;99276.00;5025910;28;20651;-44
2022/12/22 03:53:21;;;;;;;12.93;2.53;;;;;;;5.66;96.49;99280.34;5026371;28;20049;-45
2022/12/22 03:55:48;;;;;;;9.85;4.10;;;;;;;5.67;96.89;99270.97;5026227;28;20445;-45
2022/12/22 03:58:15;;;;;;;5.07;1.80;;;;;;;5.68;96.71;99269.81;5024657;28;20042;-43
2022/12/22 04:00:41;;;;;;;12.40;2.63;;;;;;;5.68;96.98;99262.38;5020028;28;20259;-44
2022/12/22 04:03:08;;;;;;;8.38;3.35;;;;;;;5.68;97.03;99267.88;5025253;28;20037;-43
2022/12/22 04:05:35;;;;;;;14.55;3.33;;;;;;;5.70;97.24;99270.25;5023853;28;20183;-43
2022/12/22 04:08:02;;;;;;;8.35;2.35;;;;;;;5.69;97.50;99246.72;5021369;28;20132;-43
2022/12/22 04:13:14;;;;;;;11.27;2.85;;;;;;;5.70;97.63;99253.78;5023887;28;20092;-43
2022/12/22 04:15:40;;;;;;;18.02;3.92;;;;;;;5.70;97.54;99242.81;5027438;28;20395;-45
2022/12/22 04:18:07;;;;;;;14.10;2.38;;;;;;;5.70;97.59;99249.09;5020652;28;20038;-45
2022/12/22 04:20:34;;;;;;;9.23;2.35;;;;;;;5.71;97.69;99258.16;5023527;28;20487;-44
2022/12/22 04:23:00;;;;;;;11.25;2.75;;;;;;;5.72;97.90;99259.75;5028762;28;20086;-48
2022/12/22 04:25:28;;;;;;;9.52;2.58;;;;;;;5.73;97.82;99264.06;5028929;28;20144;-42
2022/12/22 04:27:55;;;;;;;8.30;2.70;;;;;;;5.73;97.92;99264.06;5004739;28;20458;-47
2022/12/22 04:30:21;;;;;;;13.82;3.25;;;;;;;5.74;98.29;99260.19;5026492;28;20139;-43
2022/12/22 04:32:48;;;;;;;10.63;2.65;;;;;;;5.74;98.27;99261.00;5026200;28;20069;-43
2022/12/22 04:35:15;;;;;;;13.65;2.42;;;;;;;5.75;98.52;99256.28;5028310;28;20056;-43
2022/12/22 04:37:41;;;;;;;15.23;2.92;;;;;;;5.76;98.51;99271.63;5029044;28;20369;-43
2022/12/22 04:40:08;;;;;;;10.68;2.58;;;;;;;5.77;98.82;99270.50;5024763;28;20046;-44
2022/12/22 04:42:35;;;;;;;7.78;2.00;;;;;;;5.76;98.68;99274.38;5027701;28;20052;-42
2022/12/22 04:45:02;;;;;;;15.70;2.55;;;;;;;5.75;98.75;99279.06;5025850;28;20044;-46
2022/12/22 04:47:29;;;;;;;9.38;2.38;;;;;;;5.75;98.85;99273.56;5027471;28;20099;-46
2022/12/22 04:49:56;;;;;;;11.05;2.92;;;;;;;5.76;98.98;99277.13;5025242;28;20065;-42
2022/12/22 04:52:22;;;;;;;16.17;2.75;;;;;;;5.74;99.07;99266.50;5024877;28;20502;-46
2022/12/22 04:54:49;;;;;;;13.48;2.67;;;;;;;5.73;99.27;99264.06;5027964;28;20589;-47
2022/12/22 04:57:16;;;;;;;9.55;2.40;;;;;;;5.74;99.30;99254.69;5028041;28;20045;-42
2022/12/22 04:59:43;;;;;;;13.38;2.33;;;;;;;5.73;99.56;99253.09;5028519;28;20051;-42
2022/12/22 05:02:09;;;;;;;12.05;2.45;;;;;;;5.73;99.77;99264.88;5031137;28;20064;-45
2022/12/22 05:04:36;;;;;;;6.18;2.30;;;;;;;5.74;99.85;99260.19;5006477;28;20045;-42
2022/12/22 05:07:04;;;;;;;17.50;3.72;;;;;;;5.73;99.84;99267.63;5021498;28;20037;-42
2022/12/22 05:09:31;;;;;;;9.30;2.58;;;;;;;5.74;99.98;99271.19;5027451;28;20060;-43
2022/12/22 05:12:53;;;;;;;8.77;2.85;;;;;;;5.73;99.91;99258.59;5028196;28;20048;-46
2022/12/22 05:14:47;;;;;;;12.00;2.55;;;;;;;5.73;100.00;99264.06;5028708;28;20777;-42
2022/12/22 05:17:14;;;;;;;9.65;3.08;;;;;;;5.72;100.00;99268.00;5027973;28;20145;-43
2022/12/22 05:19:40;;;;;;;15.80;3.17;;;;;;;5.73;100.00;99264.06;5028612;28;20049;-42
2022/12/22 05:22:07;;;;;;;13.70;3.53;;;;;;;5.74;100.00;99260.19;5028916;28;20072;-42
2022/12/22 05:24:34;;;;;;;6.53;2.78;;;;;;;5.75;100.00;99259.03;5028443;28;20053;-48
2022/12/22 05:27:00;;;;;;;11.55;3.33;;;;;;;5.73;100.00;99262.13;5028659;28;20055;-42
2022/12/22 05:29:27;;;;;;;12.10;3.20;;;;;;;5.75;100.00;99259.03;5028422;28;20099;-43
2022/12/22 05:31:54;;;;;;;9.18;3.38;;;;;;;5.76;100.00;99255.16;5028817;28;20111;-42
2022/12/22 05:34:20;;;;;;;12.60;3.75;;;;;;;5.74;100.00;99261.00;5025421;28;20433;-42
2022/12/22 05:36:47;;;;;;;15.40;3.55;;;;;;;5.76;100.00;99264.19;5012964;28;20037;-42
2022/12/22 05:39:14;;;;;;;10.75;3.35;;;;;;;5.76;100.00;99257.91;5027239;28;20053;-42
2022/12/22 05:41:40;;;;;;;9.57;4.03;;;;;;;5.76;100.00;99263.38;5022776;28;20049;-42
2022/12/22 05:44:07;;;;;;;8.98;3.17;;;;;;;5.75;100.00;99265.31;5039984;28;20048;-42
2022/12/22 05:46:34;;;;;;;10.13;3.38;;;;;;;5.75;100.00;99267.25;5026756;28;20065;-42
2022/12/22 05:49:00;;;;;;;18.65;3.33;;;;;;;5.75;100.00;99268.06;5026056;28;20497;-43
2022/12/22 05:51:27;;;;;;;9.80;3.30;;;;;;;5.75;100.00;99262.56;5026754;28;20041;-42
2022/12/22 05:53:54;;;;;;;14.15;3.47;;;;;;;5.75;100.00;99251.59;5027482;28;20061;-46
2022/12/22 05:56:21;;;;;;;16.85;4.35;;;;;;;5.75;100.00;99248.84;5026212;28;20509;-42
2022/12/22 05:58:47;;;;;;;18.45;5.40;;;;;;;5.74;100.00;99243.72;5018389;28;20128;-49
2022/12/22 06:01:14;;;;;;;17.85;5.43;;;;;;;5.72;100.00;99248.78;5021792;28;20492;-42
2022/12/22 06:03:41;;;;;;;13.13;5.47;;;;;;;5.71;100.00;99238.94;5031893;28;20132;-42
2022/12/22 06:06:08;;;;;;;14.05;4.85;;;;;;;5.71;100.00;99241.66;5025305;28;20053;-43
2022/12/22 06:08:34;;;;;;;23.95;5.28;;;;;;;5.69;100.00;99246.72;5008491;28;20057;-42
2022/12/22 06:11:01;;;;;;;14.13;4.53;;;;;;;5.68;100.00;99245.09;5025204;28;20483;-42
2022/12/22 06:13:28;;;;;;;13.00;4.25;;;;;;;5.67;100.00;99243.50;5026383;28;20116;-43
2022/12/22 06:15:54;;;;;;;11.68;3.22;;;;;;;5.66;100.00;99248.22;5022838;28;20054;-43
2022/12/22 06:18:21;;;;;;;20.60;3.38;;;;;;;5.65;100.00;99241.13;5026425;28;20046;-51
2022/12/22 06:20:51;;;;;;;13.40;3.38;;;;;;;5.65;100.00;99240.31;5020364;28;20052;-42
2022/12/22 06:23:18;;;;;;;14.05;2.67;;;;;;;5.64;100.00;99255.97;5026126;28;20120;-42
2022/12/22 06:25:57;;;;;;;19.30;3.90;;;;;;;5.65;100.00;99260.34;5027206;28;20190;-43
2022/12/22 06:28:23;;;;;;;19.77;3.33;;;;;;;5.66;100.00;99259.19;5024065;28;20337;-45
2022/12/22 06:30:51;;;;;;;9.90;2.38;;;;;;;5.67;100.00;99257.22;5021831;28;20037;-42
2022/12/22 06:33:18;;;;;;;20.02;3.63;;;;;;;5.68;100.00;99267.88;5003935;28;20152;-42
2022/12/22 06:35:45;;;;;;;12.68;3.75;;;;;;;5.68;100.00;99267.06;5022583;28;20473;-42
2022/12/22 06:38:16;;;;;;;16.92;3.22;;;;;;;5.68;100.00;99267.88;5024153;28;20149;-42
2022/12/22 06:40:42;;;;;;;16.67;4.90;;;;;;;5.69;100.00;99257.69;5023104;28;20502;-42
2022/12/22 06:43:09;;;;;;;15.00;5.13;;;;;;;5.68;100.00;99259.66;5030359;28;20451;-42
2022/12/22 06:45:39;;;;;;;14.80;3.40;;;;;;;5.69;100.00;99260.44;5019365;28;20383;-42
2022/12/22 06:48:08;;;;;;;18.70;4.35;;;;;;;5.69;100.00;99247.53;5025754;28;20037;-43
2022/12/22 06:50:35;;;;;;;13.00;3.08;;;;;;;5.69;100.00;99241.22;5015348;28;20050;-42
2022/12/22 06:53:03;;;;;;;14.75;4.10;;;;;;;5.69;100.00;99250.28;5026064;28;20502;-42
2022/12/22 06:55:30;;;;;;;16.52;2.88;;;;;;;5.69;100.00;99243.97;5026954;28;20049;-43
2022/12/22 06:57:56;;;;;;;16.50;3.67;;;;;;;5.69;100.00;99241.22;5026769;28;20533;-44
2022/12/22 07:00:23;;;;;;;8.35;2.58;;;;;;;5.68;100.00;99234.94;5027122;28;20049;-42
2022/12/22 07:02:50;;;;;;;15.27;3.60;;;;;;;5.68;100.00;99223.94;5028756;28;20100;-42
2022/12/22 07:05:18;;;;;;;11.40;3.65;;;;;;;5.68;100.00;99225.88;5026131;28;20179;-43
2022/12/22 07:07:44;;;;;;;17.52;2.47;;;;;;;5.68;100.00;99223.16;5028517;28;20057;-42
2022/12/22 07:10:12;;;;;;;15.05;3.78;;;;;;;5.68;100.00;99223.16;5012736;28;20483;-42
2022/12/22 07:12:38;;;;;;;12.45;2.67;;;;;;;5.68;100.00;99228.63;5024991;28;20059;-42
2022/12/22 07:15:06;;;;;;;11.40;3.47;;;;;;;5.70;100.00;99229.06;5025254;28;20054;-46
2022/12/22 07:17:32;;;;;;;8.50;1.90;;;;;;;5.69;100.00;99220.06;5026175;28;20045;-42
2022/12/22 07:19:59;;;;;;;12.13;2.20;;;;;;;5.69;100.00;99222.81;5024294;28;20076;-42
2022/12/22 07:22:26;;;;;;;17.13;4.97;;;;;;;5.68;100.00;99218.47;5022700;28;20045;-45
2022/12/22 07:24:57;;;;;;;17.70;3.55;;;;;;;5.70;100.00;99215.34;5005446;28;20089;-41
2022/12/22 07:27:23;;;;;;;7.85;2.25;;;;;;;5.71;100.00;99216.97;5024554;28;20080;-45
2022/12/22 07:29:50;;;;;;;10.13;2.70;;;;;;;5.73;100.00;99220.16;5025653;28;20073;-42
2022/12/22 07:32:17;;;;;;;9.23;2.20;;;;;;;5.72;100.00;99213.84;5021086;28;20042;-42
2022/12/22 07:34:44;;;;;;;10.48;2.42;;;;;;;5.71;100.00;99216.97;5026292;28;20462;-42
2022/12/22 07:37:12;;;;;;;10.38;1.98;;;;;;;5.71;100.00;99216.97;5025963;28;20057;-43
2022/12/22 07:39:39;;;;;;;12.18;1.98;;;;;;;5.73;100.00;99217.41;5024728;28;20088;-42
2022/12/22 07:44:51;;;;;;;8.82;1.88;;;;;;;5.74;100.00;99216.25;5026327;28;20053;-42
2022/12/22 07:47:17;;;;;;;13.75;2.97;;;;;;;5.74;100.00;99213.53;5026092;28;20046;-43
2022/12/22 07:52:29;;;;;;;6.90;2.33;;;;;;;5.76;100.00;99220.25;5030098;28;20049;-48
2022/12/22 07:54:56;;;;;;;8.45;3.00;;;;;;;5.76;100.00;99216.69;5029381;28;20041;-43
2022/12/22 07:57:25;;;;;;;15.00;3.10;;;;;;;5.75;100.00;99215.09;5029020;28;20053;-42
2022/12/22 07:59:52;;;;;;;9.05;3.10;;;;;;;5.76;100.00;99231.25;5017943;28;20726;-47
2022/12/22 08:02:19;;;;;;;7.82;2.67;;;;;;;5.76;100.00;99235.94;5025808;28;20046;-47
2022/12/22 08:04:46;;;;;;;14.73;3.00;;;;;;;5.77;100.00;99238.31;5030278;28;20049;-42
2022/12/22 08:07:12;;;;;;;11.73;2.22;;;;;;;5.77;100.00;99240.28;5020921;28;20046;-42
2022/12/22 08:09:39;;;;;;;17.65;2.60;;;;;;;5.76;100.00;99236.72;5031414;28;20160;-46
2022/12/22 08:12:06;;;;;;;13.43;2.40;;;;;;;5.77;100.00;99243.81;5027802;28;20131;-43
2022/12/22 08:14:33;;;;;;;9.00;2.15;;;;;;;5.77;100.00;99243.03;5030862;28;20049;-43
2022/12/22 08:16:59;;;;;;;10.57;2.20;;;;;;;5.76;100.00;99253.19;5031253;28;20075;-42
2022/12/22 08:19:26;;;;;;;12.55;2.85;;;;;;;5.76;100.00;99252.41;5028834;28;20114;-43
2022/12/22 08:21:53;;;;;;;12.07;2.45;;;;;;;5.74;100.00;99268.44;5023246;28;20438;-43
2022/12/22 08:24:21;;;;;;;9.50;2.75;;;;;;;5.72;100.00;99270.75;5031093;28;20401;-43
2022/12/22 08:26:53;;;;;;;11.48;3.30;;;;;;;5.69;100.00;99269.50;5011148;28;20084;-42
2022/12/22 08:29:31;;;;;;;6.75;1.70;;;;;;;5.67;100.00;99270.97;5030638;28;20041;-47
2022/12/22 08:31:59;;;;;;;8.23;2.20;;;;;;;5.66;100.00;99285.84;5023123;28;20045;-43
2022/12/22 08:34:26;;;;;;;13.20;2.35;;;;;;;5.64;100.00;99288.94;5022800;28;20057;-52
2022/12/22 08:36:56;;;;;;;9.68;2.95;;;;;;;5.63;100.00;99298.31;5018351;28;20057;-49
2022/12/22 08:39:25;;;;;;;10.93;3.38;;;;;;;5.63;100.00;99297.53;5022991;28;20049;-50
2022/12/22 08:41:53;;;;;;;9.48;2.83;;;;;;;5.63;100.00;99297.53;5010774;28;20162;-48
2022/12/22 08:44:25;;;;;;;8.95;2.60;;;;;;;5.64;100.00;99297.16;5030138;28;20049;-44
2022/12/22 08:46:52;;;;;;;16.50;2.90;;;;;;;5.64;100.00;99290.91;5029317;28;20050;-49
2022/12/22 08:49:20;;;;;;;18.05;6.75;;;;;;;5.63;100.00;99306.56;5028510;28;20049;-43
2022/12/22 08:51:47;;;;;;;14.73;2.63;;;;;;;5.64;100.00;99308.16;5029094;28;20524;-43
2022/12/22 08:54:14;;;;;;;15.70;3.58;;;;;;;5.62;100.00;99312.38;5029171;28;20054;-46
2022/12/22 08:56:42;;;;;;;11.40;2.45;;;;;;;5.62;100.00;99312.38;5028869;28;20693;-52
2022/12/22 08:59:09;;;;;;;11.30;2.88;;;;;;;5.62;100.00;99312.38;5028896;28;20116;-43
2022/12/22 09:01:37;;;;;;;11.85;2.83;;;;;;;5.62;100.00;99317.88;5031744;28;20056;-43
2022/12/22 09:04:05;;;;;;;11.30;3.10;;;;;;;5.64;100.00;99318.34;5030623;28;20060;-43
2022/12/22 09:06:33;;;;;;;10.20;3.20;;;;;;;5.64;100.00;99316.38;5025949;28;20049;-43
2022/12/22 09:09:09;;;;;;;9.48;3.42;;;;;;;5.64;100.00;99321.09;5028023;28;20041;-43
2022/12/22 09:11:36;;;;;;;9.52;2.90;;;;;;;5.64;100.00;99326.59;5028373;28;20052;-44
2022/12/22 09:14:04;;;;;;;11.60;3.40;;;;;;;5.64;100.00;99337.56;5028161;28;20045;-45
2022/12/22 09:16:32;;;;;;;8.20;2.72;;;;;;;5.62;100.00;99340.63;5020476;28;20049;-44
2022/12/22 09:19:00;;;;;;;7.30;2.35;;;;;;;5.63;100.00;99338.69;5028586;28;20045;-48
2022/12/22 09:21:27;;;;;;;8.60;2.70;;;;;;;5.63;100.00;99346.94;5028890;28;20056;-43
2022/12/22 09:23:55;;;;;;;5.72;1.85;;;;;;;5.64;100.00;99348.56;5027436;28;20053;-48
2022/12/22 09:26:25;;;;;;;6.30;2.15;;;;;;;5.64;100.00;99359.53;5028475;28;20046;-43
2022/12/22 09:28:54;;;;;;;9.13;2.58;;;;;;;5.63;100.00;99357.91;5025811;28;20076;-43
2022/12/22 09:31:22;;;;;;;7.60;2.13;;;;;;;5.66;100.00;99368.22;5016521;28;20483;-43
2022/12/22 09:33:49;;;;;;;4.57;2.40;;;;;;;5.68;100.00;99371.41;5028616;28;20120;-43
2022/12/22 09:36:19;;;;;;;7.50;1.92;;;;;;;5.70;100.00;99374.59;5027910;28;20069;-43
2022/12/22 09:38:46;;;;;;;5.97;2.10;;;;;;;5.70;100.00;99369.09;5027453;28;20132;-45
2022/12/22 09:41:15;;;;;;;4.57;2.55;;;;;;;5.72;100.00;99367.63;5028099;28;20045;-42
2022/12/22 09:43:42;;;;;;;19.23;4.05;;;;;;;5.75;100.00;99371.63;5026140;28;20402;-43
2022/12/22 09:46:25;;;;;;;11.65;4.38;;;;;;;5.79;100.00;99362.34;5027898;28;20080;-43
2022/12/22 09:48:53;;;;;;;9.68;4.53;;;;;;;5.84;100.00;99362.13;5028241;28;20137;-43
2022/12/22 09:51:21;;;;;;;17.50;4.50;;;;;;;5.92;100.00;99365.91;5027816;28;20053;-44
2022/12/22 09:53:58;;;;;;;11.13;3.78;;;;;;;5.99;100.00;99360.59;5027304;28;20503;-44
2022/12/22 09:56:27;;;;;;;6.35;3.60;;;;;;;6.05;100.00;99370.19;5022875;28;20498;-44
2022/12/22 09:58:53;;;;;;;7.88;4.10;;;;;;;6.13;100.00;99372.00;5009348;28;20112;-47
2022/12/22 10:01:57;;;;;;;7.53;4.15;;;;;;;6.19;100.00;99378.88;5028859;28;20128;-44
2022/12/22 10:04:59;;;;;;;9.15;4.07;;;;;;;6.22;100.00;99377.38;5027918;28;20048;-44
2022/12/22 10:07:36;;;;;;;10.32;4.00;;;;;;;6.22;100.00;99375.41;5027314;28;20483;-48
2022/12/22 10:10:18;;;;;;;10.98;4.35;;;;;;;6.26;100.00;99386.50;5027470;28;20046;-43
2022/12/22 10:12:47;;;;;;;;;;;;;;;6.26;100.00;99389.25;5025472;28;20052;-50
2022/12/22 10:15:14;;;;;;;8.10;4.80;;;;;;;6.26;100.00;99384.56;5023099;28;19975;-41
2022/12/22 10:18:06;;;;;;;8.13;4.30;;;;;;;6.30;100.00;99393.69;5027334;28;20059;-41
2022/12/22 10:20:33;;;;;;;12.13;6.28;;;;;;;6.32;100.00;99391.41;5027305;28;20080;-45
2022/12/22 10:23:05;;;;;;;11.20;5.50;;;;;;;6.37;100.00;99404.91;5009589;28;20061;-41
2022/12/22 10:25:42;;;;;;;11.05;5.50;;;;;;;6.41;100.00;99400.28;5027593;28;20558;-41
2022/12/22 10:28:45;;;;;;;13.02;5.68;;;;;;;6.45;100.00;99405.88;5027390;28;20044;-40
2022/12/22 10:31:14;;;;;;;;;;;;;;;6.46;100.00;99402.00;5020351;28;20411;-41
2022/12/22 10:33:43;;;;;;;19.38;7.88;;;;;;;6.46;100.00;99400.03;5026916;28;19925;-41
2022/12/22 10:36:20;;;;;;;9.13;6.68;;;;;;;6.48;100.00;99408.75;5026972;28;20491;-44
2022/12/22 10:39:00;;;;;;;16.58;7.78;;;;;;;6.48;100.00;99406.00;5026830;28;20045;-41
2022/12/22 10:41:48;;;;;;;12.13;5.40;;;;;;;6.52;100.00;99403.34;5009589;28;20052;-40
2022/12/22 10:44:15;;;;;;;12.00;5.18;;;;;;;6.50;100.00;99403.69;5027149;28;20046;-42
2022/12/22 10:46:53;;;;;;;11.60;5.35;;;;;;;6.52;100.00;99409.63;5026696;28;20045;-46
2022/12/22 10:49:19;;;;;;;11.88;6.50;;;;;;;6.55;100.00;99402.63;5022453;28;20064;-43
2022/12/22 10:51:51;;;;;;;19.45;8.50;;;;;;;6.57;100.00;99412.13;5024791;28;20099;-43
2022/12/22 10:54:35;;;;;;;16.67;7.60;;;;;;;6.61;100.00;99418.53;5026527;28;20499;-44
2022/12/22 10:57:13;;;;;;;13.23;5.93;;;;;;;6.67;100.00;99411.63;5026641;28;20037;-45
2022/12/22 10:59:58;;;;;;;11.90;5.53;;;;;;;6.74;100.00;99416.53;5014319;28;20103;-41
2022/12/22 11:02:32;;;;;;;12.55;5.32;;;;;;;6.78;100.00;99420.16;5034027;28;20130;-43
2022/12/22 11:05:10;;;;;;;20.45;6.78;;;;;;;6.81;100.00;99411.19;5008323;28;20049;-41
2022/12/22 11:07:39;;;;;;;15.77;4.82;;;;;;;6.84;100.00;99413.25;5026654;28;20046;-41
2022/12/22 11:10:30;;;;;;;18.15;7.15;;;;;;;6.91;100.00;99420.91;5026613;28;20049;-45
2022/12/22 11:13:09;;;;;;;21.25;7.40;;;;;;;6.94;100.00;99418.22;5017033;28;20067;-41
2022/12/22 11:15:56;;;;;;;12.05;6.90;;;;;;;6.98;100.00;99415.59;5026423;28;20072;-41
2022/12/22 11:18:50;;;;;;;8.18;2.88;;;;;;;6.99;100.00;99414.44;5026367;28;20052;-41
2022/12/22 11:21:35;;;;;;;9.43;3.28;;;;;;;6.97;100.00;99419.47;5018964;28;20084;-41
2022/12/22 11:24:31;;;;;;;8.93;3.15;;;;;;;6.99;100.00;99419.94;5016795;28;20120;-41
2022/12/22 11:27:33;;;;;;;10.68;3.47;;;;;;;6.97;100.00;99423.03;5028094;28;20052;-42
2022/12/22 11:30:10;;;;;;;7.67;2.67;;;;;;;6.89;100.00;99426.75;4980821;28;20057;-51
2022/12/22 11:33:20;;;;;;;10.43;4.35;;;;;;;6.84;100.00;99424.25;5020101;28;20088;-41
2022/12/22 11:36:04;;;;;;;7.15;2.10;;;;;;;6.80;100.00;99420.63;4981073;28;20093;-41
2022/12/22 11:39:09;;;;;;;6.22;2.03;;;;;;;6.80;100.00;99406.88;5028147;28;20474;-48
2022/12/22 11:41:50;;;;;;;5.78;2.70;;;;;;;6.82;100.00;99403.75;5001946;28;20132;-47
2022/12/22 11:44:44;;;;;;;16.73;9.70;;;;;;;6.82;100.00;99418.31;5030868;28;20108;-43
2022/12/22 11:47:43;;;;;;;8.98;5.03;;;;;;;6.84;100.00;99429.75;5021107;28;20052;-41
2022/12/22 11:50:28;;;;;;;7.32;3.17;;;;;;;6.90;100.00;99435.81;5030909;28;20137;-42
2022/12/22 11:53:15;;;;;;;5.20;2.45;;;;;;;6.96;100.00;99437.16;5018168;28;20068;-43
2022/12/22 11:56:03;;;;;;;4.60;2.38;;;;;;;7.03;100.00;99438.13;5029817;28;20050;-41
2022/12/22 11:58:51;;;;;;;8.95;3.70;;;;;;;7.11;100.00;99448.19;5013258;28;20136;-41
2022/12/22 12:01:51;;;;;;;5.95;2.70;;;;;;;7.16;100.00;99447.91;5031300;28;20045;-41
2022/12/22 12:04:56;;;;;;;7.18;3.20;;;;;;;7.12;100.00;99452.50;5010267;28;20046;-42
2022/12/22 12:07:40;;;;;;;7.82;2.58;;;;;;;7.13;100.00;99451.38;5026457;28;20045;-41
2022/12/22 12:10:32;;;;;;;7.90;3.72;;;;;;;7.16;100.00;99458.91;5030181;28;20099;-42
2022/12/22 12:13:25;;;;;;;4.95;2.22;;;;;;;7.19;100.00;99455.47;5019850;28;20068;-42
2022/12/22 12:16:21;;;;;;;6.95;2.63;;;;;;;7.20;100.00;99459.03;5029796;28;20053;-47
2022/12/22 12:18:57;;;;;;;3.60;2.75;;;;;;;7.18;100.00;99451.09;5029838;28;20129;-48
2022/12/22 12:21:28;;;;;;;4.32;2.35;;;;;;;7.16;100.00;99455.38;5029847;28;20455;-41
2022/12/22 12:24:00;;;;;;;6.40;2.38;;;;;;;7.14;100.00;99457.69;5029665;28;20086;-41
2022/12/22 12:26:52;;;;;;;5.78;3.25;;;;;;;7.12;100.00;99458.00;5011646;28;20389;-44
2022/12/22 12:29:23;;;;;;;7.22;3.35;;;;;;;7.13;100.00;99456.88;5030526;28;20440;-42
2022/12/22 12:32:01;;;;;;;6.97;3.38;;;;;;;7.12;100.00;99469.03;5019195;28;20060;-42
2022/12/22 12:34:44;;;;;;;6.65;3.17;;;;;;;7.08;100.00;99462.63;5027785;28;20103;-41
2022/12/22 12:37:22;;;;;;;9.80;3.83;;;;;;;7.07;100.00;99449.25;5018014;28;20056;-42
2022/12/22 12:40:31;;;;;;;7.10;4.05;;;;;;;7.06;100.00;99453.13;5026732;28;20064;-51
2022/12/22 12:42:59;;;;;;;9.80;4.13;;;;;;;7.06;100.00;99459.44;5015501;28;20076;-41
2022/12/22 12:45:40;;;;;;;5.07;4.00;;;;;;;7.08;100.00;99465.41;5028489;28;20046;-44
2022/12/22 12:48:19;;;;;;;6.57;4.68;;;;;;;7.08;100.00;99459.88;5028281;28;20045;-41
2022/12/22 12:50:47;;;;;;;6.40;3.90;;;;;;;7.07;100.00;99465.75;5027524;28;20049;-41
2022/12/22 12:53:16;;;;;;;8.23;4.95;;;;;;;7.05;100.00;99463.34;5028736;28;20084;-48
2022/12/22 12:55:49;;;;;;;13.07;6.78;;;;;;;7.04;100.00;99470.00;5029192;28;20466;-41
2022/12/22 12:58:47;;;;;;;8.05;5.05;;;;;;;7.04;100.00;99471.97;5029219;28;20203;-43
2022/12/22 13:01:25;;;;;;;10.75;5.68;;;;;;;7.05;100.00;99470.78;5023814;28;20407;-41
2022/12/22 13:03:52;;;;;;;9.48;5.75;;;;;;;7.04;100.00;99467.25;5016823;28;20064;-43
2022/12/22 13:06:44;;;;;;;10.23;5.93;;;;;;;7.09;100.00;99471.69;5020553;28;20042;-44
2022/12/22 13:09:23;;;;;;;10.48;5.50;;;;;;;7.10;100.00;99465.03;5029610;28;20044;-43
2022/12/22 13:12:33;;;;;;;12.30;5.70;;;;;;;7.15;100.00;99467.53;5029045;28;20049;-44
2022/12/22 13:15:00;;;;;;;6.15;5.18;;;;;;;7.16;100.00;99463.63;5029309;28;20049;-41
2022/12/22 13:17:36;;;;;;;10.38;5.30;;;;;;;7.16;100.00;99450.66;5029958;28;20450;-42
2022/12/22 13:20:05;;;;;;;10.50;6.18;;;;;;;7.18;100.00;99453.06;5026625;28;20096;-41
2022/12/22 13:22:32;;;;;;;8.10;5.88;;;;;;;7.17;100.00;99454.22;5028378;28;20369;-48
2022/12/22 13:25:02;;;;;;;15.05;8.00;;;;;;;7.16;100.00;99447.09;5030224;28;20060;-46
2022/12/22 13:27:30;;;;;;;14.00;6.97;;;;;;;7.17;100.00;99456.97;5028384;28;20042;-41
2022/12/22 13:29:57;;;;;;;17.20;7.25;;;;;;;7.16;100.00;99458.13;5027568;28;20068;-41
2022/12/22 13:32:28;;;;;;;13.45;6.03;;;;;;;7.12;100.00;99452.50;5026664;28;20041;-42
2022/12/22 13:35:36;;;;;;;10.30;5.90;;;;;;;7.06;100.00;99447.63;5018354;28;20041;-42
2022/12/22 13:38:33;;;;;;;9.18;5.90;;;;;;;7.04;100.00;99444.44;4930058;29;20494;-41
2022/12/22 13:41:14;;;;;;;10.88;5.38;;;;;;;7.05;100.00;99444.06;4935487;29;20123;-42
2022/12/22 13:43:52;;;;;;;10.73;4.72;;;;;;;7.07;100.00;99429.97;4999751;28;20064;-41
2022/12/22 13:46:19;;;;;;;12.00;6.57;;;;;;;7.08;100.00;99440.63;5025837;28;20069;-42
2022/12/22 13:48:51;;;;;;;11.73;5.60;;;;;;;7.10;100.00;99443.00;5027939;28;20049;-42
2022/12/22 13:51:22;;;;;;;10.43;5.93;;;;;;;7.12;100.00;99446.22;5027190;28;20680;-42
2022/12/22 13:54:22;;;;;;;11.38;6.78;;;;;;;7.10;100.00;99448.50;5028750;28;20061;-42
2022/12/22 13:56:52;;;;;;;10.00;5.55;;;;;;;7.10;100.00;99459.53;5011322;28;20058;-41
2022/12/22 13:59:31;;;;;;;10.15;5.43;;;;;;;7.08;100.00;99464.59;5022345;28;20041;-41
2022/12/22 14:02:01;;;;;;;7.32;6.10;;;;;;;7.08;100.00;99467.34;5024804;28;20411;-42
2022/12/22 14:04:28;;;;;;;8.73;5.75;;;;;;;7.06;100.00;99458.66;5024320;28;20049;-44
2022/12/22 14:06:55;;;;;;;9.20;5.45;;;;;;;7.03;100.00;99470.34;5023518;28;20099;-43
2022/12/22 14:09:24;;;;;;;11.73;5.97;;;;;;;6.96;100.00;99479.22;5026051;28;20045;-41
2022/12/22 14:12:02;;;;;;;8.55;6.13;;;;;;;6.93;100.00;99474.44;5027476;28;20049;-42
2022/12/22 14:14:34;;;;;;;12.38;8.25;;;;;;;6.94;100.00;99462.25;5029419;28;20044;-42
2022/12/22 14:17:02;;;;;;;13.00;7.72;;;;;;;6.97;100.00;99458.00;5029282;28;20507;-42
2022/12/22 14:19:32;;;;;;;13.40;6.68;;;;;;;6.98;100.00;99449.41;5027940;28;20045;-42
2022/12/22 14:22:07;;;;;;;12.85;6.68;;;;;;;7.00;100.00;99446.28;5029422;28;20071;-42
2022/12/22 14:24:43;;;;;;;11.38;7.15;;;;;;;7.02;100.00;99447.53;5027804;28;20132;-41
2022/12/22 14:27:25;;;;;;;16.60;8.27;;;;;;;7.02;100.00;99450.28;5028188;28;20052;-42
2022/12/22 14:29:52;;;;;;;12.52;6.90;;;;;;;7.03;100.00;99454.66;5027881;28;20077;-42
2022/12/22 14:32:36;;;;;;;14.70;6.32;;;;;;;7.04;100.00;99455.44;5029216;28;20049;-42
2022/12/22 14:35:15;;;;;;;10.13;6.38;;;;;;;7.09;100.00;99457.94;5028957;28;20064;-44
2022/12/22 14:37:42;;;;;;;10.40;5.15;;;;;;;7.12;100.00;99468.25;5029239;28;20046;-45
2022/12/22 14:40:32;;;;;;;15.82;5.47;;;;;;;7.19;100.00;99479.44;5028977;28;20088;-49
2022/12/22 14:43:02;;;;;;;8.85;5.03;;;;;;;7.20;100.00;99470.03;5029092;28;20037;-42
2022/12/22 14:45:28;;;;;;;12.93;4.85;;;;;;;7.23;100.00;99469.31;5010640;28;20041;-42
2022/12/22 14:47:56;;;;;;;7.78;2.72;;;;;;;7.21;100.00;99466.13;5027061;28;20041;-44
2022/12/22 14:50:25;;;;;;;6.32;3.03;;;;;;;7.14;100.00;99465.94;5028953;28;20123;-46
2022/12/22 14:52:55;;;;;;;8.65;2.42;;;;;;;7.07;100.00;99479.53;5029290;28;20049;-42
2022/12/22 14:55:36;;;;;;;8.98;2.92;;;;;;;7.02;100.00;99480.56;5028918;28;20080;-42
2022/12/22 14:58:10;;;;;;;10.90;2.70;;;;;;;6.97;100.00;99482.75;5019239;28;20390;-41
2022/12/22 15:00:48;;;;;;;7.20;2.53;;;;;;;6.93;100.00;99490.13;5028371;28;20060;-46
2022/12/22 15:03:42;;;;;;;10.75;4.32;;;;;;;6.89;100.00;99502.97;5030111;28;20053;-41
2022/12/22 15:06:22;;;;;;;6.60;3.28;;;;;;;6.85;100.00;99511.16;5025045;28;20464;-42
2022/12/22 15:08:51;;;;;;;15.35;2.80;;;;;;;6.82;100.00;99505.53;5028101;28;20124;-42
2022/12/22 15:11:21;;;;;;;6.97;3.13;;;;;;;6.81;100.00;99528.69;5028801;28;20120;-44
2022/12/22 15:13:49;;;;;;;10.82;2.90;;;;;;;6.80;100.00;99521.59;5028629;28;20455;-42
2022/12/22 15:16:18;;;;;;;17.63;5.68;;;;;;;6.78;100.00;99535.69;5027598;28;20050;-42
2022/12/22 15:18:46;;;;;;;15.05;5.40;;;;;;;6.80;100.00;99538.09;5027101;28;20462;-42
2022/12/22 15:21:15;;;;;;;10.65;5.45;;;;;;;6.79;100.00;99536.50;5019044;28;20255;-42
2022/12/22 15:23:42;;;;;;;13.23;6.55;;;;;;;6.75;100.00;99531.69;5028479;28;20446;-42
2022/12/22 15:26:10;;;;;;;13.55;6.28;;;;;;;6.72;100.00;99529.63;5028786;28;20140;-41
2022/12/22 15:28:37;;;;;;;13.30;6.30;;;;;;;6.69;100.00;99527.59;5008349;28;20045;-44
2022/12/22 15:31:13;;;;;;;11.90;5.68;;;;;;;6.68;100.00;99517.72;5011752;28;20052;-41
2022/12/22 15:33:41;;;;;;;11.50;5.65;;;;;;;6.66;100.00;99517.28;5027403;28;20061;-43
2022/12/22 15:36:10;;;;;;;12.98;5.95;;;;;;;6.63;100.00;99517.97;5033668;28;20056;-46